Addieville, Illinois
Current Conditions -  °F | °C
As of 10:55 AM on Friday 28 Nov 2014 (Local Time) from KSAR Reporting Station
Clear Clear  
Wind Chill: 27°   Ceiling: Unl
Heat Index: 37°   Visibility: 10mi
Dew Point: 29°   Wind: 15mph
Humidity: 76%   Direction: 180°S
Pressure: 30.21"   Gusts: 22mph
Location:  38.39°N, 89.49°W
Report Text: KSAR 281655Z AUTO 18013G19KT 10SM CLR 03/M01 A3021 RMK AO2 T00251014
Loading
Personal Weather Stations






























Interactive Weather Map New forecast layout! Learn more

10-Day Weather Forecast

Advertisements
Track Severe Weather on mobile